Time;durP1;ratioP1;P1;durP2;ratioP2;P2;SDS_P1;SDS_P2;PMS_P1;PMS_P2;Temp;Humidity;BMP_temperature;BMP_pressure;BME280_temperature;BME280_humidity;BME280_pressure;Samples;Min_cycle;Max_cycle;Signal;HPM_P1;HPM_P2
2022/05/19 00:02:03;;;;;;;4.90;2.60;;;23.90;51.10;;;;;;219775;1271;22617;-67
2022/05/19 00:07:08;;;;;;;6.80;2.80;;;23.90;51.20;;;;;;219845;1272;25373;-67
2022/05/19 00:12:18;;;;;;;7.50;2.90;;;23.90;51.70;;;;;;220045;1271;24230;-67
2022/05/19 00:17:21;;;;;;;7.20;2.70;;;23.90;51.00;;;;;;219928;1272;22556;-68
2022/05/19 00:22:31;;;;;;;4.20;2.20;;;23.90;50.90;;;;;;220031;1271;25461;-67
2022/05/19 00:27:35;;;;;;;4.70;2.30;;;23.90;51.10;;;;;;219898;1271;23922;-69
2022/05/19 00:32:39;;;;;;;6.30;2.30;;;23.90;51.00;;;;;;219960;1272;22570;-69
2022/05/19 00:37:43;;;;;;;5.10;2.20;;;23.80;50.50;;;;;;219734;1271;22542;-66
2022/05/19 00:42:47;;;;;;;5.70;2.40;;;23.80;50.50;;;;;;220023;1271;24239;-67
2022/05/19 00:48:00;;;;;;;4.20;1.90;;;23.80;50.20;;;;;;219776;1272;22547;-68
2022/05/19 00:53:34;;;;;;;4.60;2.10;;;23.70;50.40;;;;;;219803;1272;25495;-68
2022/05/19 00:58:44;;;;;;;8.60;2.40;;;23.70;50.30;;;;;;220005;1271;24336;-68
2022/05/19 01:03:59;;;;;;;5.50;2.50;;;23.60;50.10;;;;;;219960;1271;22724;-69
2022/05/19 01:09:07;;;;;;;6.70;2.40;;;23.60;50.10;;;;;;220011;1271;22618;-66
2022/05/19 01:14:12;;;;;;;5.50;2.20;;;23.60;50.10;;;;;;219928;1271;24255;-68
2022/05/19 01:19:37;;;;;;;6.20;2.40;;;23.60;50.40;;;;;;219982;1274;22537;-68
2022/05/19 01:24:55;;;;;;;5.70;2.30;;;23.60;50.00;;;;;;219750;1271;25306;-68
2022/05/19 01:29:59;;;;;;;5.10;2.30;;;23.60;49.90;;;;;;219812;1271;25402;-67
2022/05/19 01:35:04;;;;;;;6.50;2.30;;;23.50;50.30;;;;;;219968;1271;24772;-66
2022/05/19 01:40:29;;;;;;;5.30;2.30;;;23.50;50.00;;;;;;219770;1271;22550;-68
2022/05/19 01:45:50;;;;;;;5.70;2.20;;;23.50;50.00;;;;;;219650;1271;23199;-67
2022/05/19 01:51:00;;;;;;;4.00;2.10;;;23.50;50.00;;;;;;219563;1274;22564;-67
2022/05/19 01:56:32;;;;;;;4.40;1.90;;;23.50;49.90;;;;;;219907;1271;24222;-67
2022/05/19 02:01:44;;;;;;;6.00;2.60;;;23.50;49.90;;;;;;219725;1271;24279;-67
2022/05/19 02:07:04;;;;;;;6.40;2.60;;;23.50;49.90;;;;;;219650;1273;24081;-66
2022/05/19 02:12:10;;;;;;;7.90;2.80;;;23.40;50.30;;;;;;219980;1271;22571;-68
2022/05/19 02:17:17;;;;;;;10.60;3.10;;;23.40;50.00;;;;;;219614;1273;24333;-67
2022/05/19 02:22:25;;;;;;;7.60;2.60;;;23.40;50.00;;;;;;219706;1274;25516;-68
2022/05/19 02:27:38;;;;;;;9.20;2.90;;;23.40;50.30;;;;;;219869;1273;22538;-69
2022/05/19 02:32:42;;;;;;;8.70;2.70;;;23.30;49.80;;;;;;219894;1274;22557;-66
2022/05/19 02:37:48;;;;;;;4.10;2.10;;;23.30;49.90;;;;;;219906;1273;23174;-67
2022/05/19 02:42:53;;;;;;;4.10;2.10;;;23.30;49.90;;;;;;220052;1274;22557;-67
2022/05/19 02:48:00;;;;;;;2.70;1.90;;;23.30;49.90;;;;;;219873;1276;22579;-66
2022/05/19 02:53:05;;;;;;;3.00;1.60;;;23.30;49.80;;;;;;219922;1273;25776;-67
2022/05/19 02:58:11;;;;;;;3.40;1.90;;;23.20;49.90;;;;;;219972;1273;22665;-68
2022/05/19 03:03:16;;;;;;;4.20;2.10;;;23.20;49.90;;;;;;219733;1273;24010;-67
2022/05/19 03:08:20;;;;;;;4.30;2.00;;;23.20;50.00;;;;;;219710;1273;23527;-68
2022/05/19 03:13:24;;;;;;;4.30;2.10;;;23.20;49.90;;;;;;219733;1272;22726;-67
2022/05/19 03:18:28;;;;;;;8.00;3.00;;;23.20;50.00;;;;;;219779;1271;22624;-67
2022/05/19 03:23:32;;;;;;;5.00;2.10;;;23.20;50.00;;;;;;219633;1271;24254;-67
2022/05/19 03:28:35;;;;;;;4.00;2.20;;;23.10;49.80;;;;;;219727;1272;22577;-66
2022/05/19 03:33:39;;;;;;;5.30;2.00;;;23.10;49.90;;;;;;219726;1271;22709;-68
2022/05/19 03:38:43;;;;;;;4.00;2.00;;;23.10;49.80;;;;;;219836;1272;22571;-67
2022/05/19 03:43:47;;;;;;;4.60;1.90;;;23.10;50.00;;;;;;219714;1271;22640;-67
2022/05/19 03:48:54;;;;;;;3.30;1.70;;;23.10;50.00;;;;;;220163;1271;22748;-67
2022/05/19 03:53:59;;;;;;;6.80;2.10;;;23.10;49.80;;;;;;219703;1271;22627;-67
2022/05/19 03:59:03;;;;;;;6.20;2.40;;;23.00;49.80;;;;;;219449;1274;22547;-68
2022/05/19 04:04:08;;;;;;;3.60;1.90;;;23.00;49.80;;;;;;220032;1272;22755;-67
2022/05/19 04:09:12;;;;;;;6.40;2.40;;;23.00;49.80;;;;;;219942;1271;26355;-67
2022/05/19 04:14:16;;;;;;;4.10;1.80;;;23.00;50.20;;;;;;219648;1272;22644;-67
2022/05/19 04:19:20;;;;;;;6.30;2.30;;;23.00;49.90;;;;;;219666;1271;22832;-67
2022/05/19 04:24:24;;;;;;;5.10;2.00;;;23.00;49.90;;;;;;219900;1271;22536;-66
2022/05/19 04:29:28;;;;;;;4.60;1.80;;;23.00;49.80;;;;;;219981;1271;22574;-67
2022/05/19 04:34:32;;;;;;;5.70;2.10;;;23.00;49.80;;;;;;219935;1271;24247;-67
2022/05/19 04:39:35;;;;;;;4.10;1.90;;;23.00;49.80;;;;;;219583;1271;24826;-67
2022/05/19 04:44:40;;;;;;;5.30;2.20;;;23.00;49.90;;;;;;219728;1271;24487;-69
2022/05/19 04:49:43;;;;;;;5.40;2.10;;;23.00;49.80;;;;;;219642;1271;24170;-66
2022/05/19 04:54:48;;;;;;;5.60;2.20;;;22.90;49.80;;;;;;219791;1271;24237;-71
2022/05/19 04:59:52;;;;;;;4.50;2.10;;;23.00;49.90;;;;;;220129;1270;24269;-67
2022/05/19 05:04:58;;;;;;;9.00;2.20;;;22.90;49.80;;;;;;219819;1271;24227;-67
2022/05/19 05:10:04;;;;;;;8.70;2.60;;;22.90;49.80;;;;;;220085;1270;22674;-67
2022/05/19 05:15:09;;;;;;;7.50;1.90;;;22.90;49.80;;;;;;219775;1271;24343;-67
2022/05/19 05:20:14;;;;;;;4.80;2.20;;;22.90;49.80;;;;;;219790;1271;24310;-67
2022/05/19 05:25:20;;;;;;;4.10;2.00;;;22.90;50.00;;;;;;219902;1271;22537;-68
2022/05/19 05:30:25;;;;;;;4.10;1.80;;;22.90;49.70;;;;;;219746;1270;24224;-66
2022/05/19 05:35:32;;;;;;;3.50;1.80;;;22.90;49.80;;;;;;219767;1271;22567;-66
2022/05/19 05:40:37;;;;;;;5.00;2.00;;;22.90;49.70;;;;;;219728;1271;26251;-67
2022/05/19 05:45:45;;;;;;;4.60;2.10;;;23.00;49.70;;;;;;219771;1271;22893;-77
2022/05/19 05:50:49;;;;;;;5.60;2.30;;;23.00;49.50;;;;;;219795;1271;24816;-70
2022/05/19 05:55:54;;;;;;;10.60;2.30;;;23.00;49.60;;;;;;219473;1271;25577;-69
2022/05/19 06:01:05;;;;;;;5.30;2.20;;;23.00;50.50;;;;;;219951;1270;22731;-71
2022/05/19 06:06:18;;;;;;;10.30;2.50;;;23.10;50.10;;;;;;219886;1270;25365;-74
2022/05/19 06:11:22;;;;;;;8.80;1.80;;;23.10;50.10;;;;;;220042;1270;22567;-73
2022/05/19 06:16:26;;;;;;;5.40;2.10;;;23.20;50.70;;;;;;219400;1273;22555;-74
2022/05/19 06:21:30;;;;;;;7.40;2.40;;;23.20;51.10;;;;;;219678;1273;22560;-78
2022/05/19 06:26:39;;;;;;;7.70;2.50;;;23.20;50.90;;;;;;219785;1270;25107;-73
2022/05/19 06:31:44;;;;;;;7.90;2.10;;;23.20;51.00;;;;;;219667;1271;22559;-73
2022/05/19 06:36:48;;;;;;;10.30;2.00;;;23.30;51.10;;;;;;219770;1271;24533;-67
2022/05/19 06:42:01;;;;;;;9.90;2.70;;;23.30;50.70;;;;;;219884;1270;24398;-73
2022/05/19 06:47:13;;;;;;;6.90;2.40;;;23.40;51.00;;;;;;219907;1270;22551;-69
2022/05/19 06:52:28;;;;;;;11.30;3.10;;;23.40;50.70;;;;;;219873;1270;22702;-71
2022/05/19 06:57:32;;;;;;;13.40;2.80;;;23.40;50.80;;;;;;219746;1271;23199;-68
2022/05/19 07:02:36;;;;;;;14.00;3.40;;;23.30;50.60;;;;;;219658;1270;22681;-69
2022/05/19 07:07:40;;;;;;;11.90;2.70;;;23.40;50.10;;;;;;219642;1270;24388;-67
2022/05/19 07:12:49;;;;;;;10.60;3.00;;;23.30;49.90;;;;;;220081;1271;24249;-68
2022/05/19 07:17:53;;;;;;;12.70;3.30;;;23.30;49.20;;;;;;219739;1271;25423;-66
2022/05/19 07:22:57;;;;;;;10.70;2.90;;;23.30;48.60;;;;;;219448;1271;364681;-68
2022/05/19 07:28:03;;;;;;;6.90;2.10;;;23.30;49.10;;;;;;219859;1271;22788;-70
2022/05/19 07:33:21;;;;;;;10.40;2.90;;;23.40;49.50;;;;;;219651;1273;22878;-73
2022/05/19 07:38:27;;;;;;;16.30;3.00;;;23.40;49.20;;;;;;219836;1271;22777;-72
2022/05/19 07:43:37;;;;;;;8.70;2.80;;;23.40;49.40;;;;;;219843;1271;24403;-73
2022/05/19 07:48:43;;;;;;;8.60;2.60;;;23.40;49.10;;;;;;219473;1271;24227;-67
2022/05/19 07:53:50;;;;;;;10.80;3.10;;;23.40;48.90;;;;;;219600;1271;24251;-69
2022/05/19 07:58:58;;;;;;;5.90;2.30;;;23.40;48.60;;;;;;219342;1273;22776;-68
2022/05/19 08:04:10;;;;;;;11.20;2.80;;;23.40;48.80;;;;;;219477;1271;22649;-67
2022/05/19 08:20:10;;;;;;;6.00;2.50;;;23.50;48.40;;;;;;219521;1273;24317;-70
2022/05/19 08:25:14;;;;;;;8.30;2.20;;;23.60;48.30;;;;;;219836;1273;24310;-70
2022/05/19 08:30:18;;;;;;;6.20;2.50;;;23.60;48.00;;;;;;219851;1273;22765;-71
2022/05/19 08:35:26;;;;;;;10.40;2.70;;;23.60;47.80;;;;;;220194;1273;22553;-69
2022/05/19 08:40:37;;;;;;;5.50;2.20;;;23.60;47.80;;;;;;219689;1273;22822;-68
2022/05/19 08:45:50;;;;;;;9.40;2.30;;;23.70;48.20;;;;;;219832;1273;25502;-70
2022/05/19 08:50:58;;;;;;;7.50;2.30;;;23.70;48.10;;;;;;219651;1273;22790;-76
2022/05/19 08:56:22;;;;;;;7.50;2.30;;;23.70;47.50;;;;;;219767;1273;24246;-68
2022/05/19 09:01:53;;;;;;;9.70;1.90;;;23.80;47.50;;;;;;219536;1273;24365;-68
2022/05/19 09:12:48;;;;;;;7.80;2.40;;;23.80;47.10;;;;;;219910;1271;22540;-66
2022/05/19 09:17:52;;;;;;;7.90;2.60;;;23.80;47.20;;;;;;219618;1273;22624;-67
2022/05/19 09:23:05;;;;;;;15.90;2.60;;;23.80;47.00;;;;;;219638;1271;24261;-62
2022/05/19 09:28:13;;;;;;;8.60;2.20;;;23.80;47.00;;;;;;219450;1273;23907;-64
